Stony Rapids Airport
CYSF : now visible

Airfield :











YOU CAN JOIN US ON...

 
LOGIN :

Register | Disclaimer

   EN    FR    IT 

 









Legend :    VFR   Marginal VFR   IFR   Intensive IFR   Very Intensive IFR
Visi :
Ceiling :
>= 8 km
>= 3000ft
5 to 8 km
1000 to 3000 ft
1500m to 5 km
500 to 1000 ft
800 to 1500m
200 to 500 ft
< 800m
< 200 ft
Symbols :   Thunderstorms  Fog  Heavy snow  Heavy precipitations  Wind > 20 kt






- Airport Elevation : 805 ft
- IATA code : YSF


CYSF - Stony Rapids

CURRENT METAR :
  • 120500Z AUTO 00000KT 9SM CLR M21/M23 A2973 RMK SLP096

EXPIRED METARs :
  • 120400Z AUTO 00000KT 9SM CLR M19/M21 A2976 RMK SLP106
  • 120300Z AUTO VRB02KT 9SM CLR M14/M16 A2977 RMK SLP111

TAF TAF CYSF
Valid from the 12 at 00:00 until the 12 at 12:00 UTC


112338Z 1200/1212 VRB03KT P6SM SKC
FM120300 VRB03KT P6SM FEW020 SCT040
FM120600 VRB03KT P6SM SCT020 BKN040
TEMPO 1206/1212 4SM -SN OVC020 RMK FCST BASED ON AUTO OBS. NXT FCST BY 120600Z



MET'MAP, your aeronautical weather chart ! - Copyright ORBIFLY December 2007 - Disclaimer

ORBIFLY MET'MAP TEAM :

Programming & Development : Alexandra Zaïnal
Concept & Development : Baudouin d'Aumeries
Co-Development & Prog : Marc-Olivier Méhu
Technical & hardware support : Manuel Goepfert

Contact : metmap@orbifly.com




SOURCES & CREDITS :

   NOAA       Earth
Advisory